sensor_id;sensor_type;location;lat;lon;timestamp;pressure;altitude;pressure_sealevel;temperature;humidity
47815;BME280;33579;50.058;18.130;2023-04-06T00:00:33;99656.81;;;1.16;100.00
47815;BME280;33579;50.058;18.130;2023-04-06T00:01:35;99656.47;;;1.03;100.00
47815;BME280;33579;50.058;18.130;2023-04-06T00:02:37;99654.19;;;0.95;100.00
47815;BME280;33579;50.058;18.130;2023-04-06T00:03:38;99651.78;;;0.90;100.00
47815;BME280;33579;50.058;18.130;2023-04-06T00:04:40;99651.78;;;0.90;100.00
47815;BME280;33579;50.058;18.130;2023-04-06T00:05:42;99656.38;;;0.83;100.00
47815;BME280;33579;50.058;18.130;2023-04-06T00:06:43;99655.78;;;0.77;100.00
47815;BME280;33579;50.058;18.130;2023-04-06T00:07:45;99654.13;;;0.74;100.00
47815;BME280;33579;50.058;18.130;2023-04-06T00:08:47;99656.25;;;0.64;100.00
47815;BME280;33579;50.058;18.130;2023-04-06T00:09:49;99656.28;;;0.63;100.00
47815;BME280;33579;50.058;18.130;2023-04-06T00:10:52;99659.13;;;0.57;100.00
47815;BME280;33579;50.058;18.130;2023-04-06T00:11:54;99657.50;;;0.54;100.00
47815;BME280;33579;50.058;18.130;2023-04-06T00:12:55;99657.50;;;0.54;100.00
47815;BME280;33579;50.058;18.130;2023-04-06T00:13:57;99649.03;;;0.49;100.00
47815;BME280;33579;50.058;18.130;2023-04-06T00:14:59;99657.50;;;0.54;100.00
47815;BME280;33579;50.058;18.130;2023-04-06T00:16:01;99647.91;;;0.56;100.00
47815;BME280;33579;50.058;18.130;2023-04-06T00:17:04;99654.00;;;0.55;100.00
47815;BME280;33579;50.058;18.130;2023-04-06T00:18:06;99650.38;;;0.59;100.00
47815;BME280;33579;50.058;18.130;2023-04-06T00:19:08;99644.38;;;0.59;100.00
47815;BME280;33579;50.058;18.130;2023-04-06T00:20:10;99654.66;;;0.60;100.00
47815;BME280;33579;50.058;18.130;2023-04-06T00:21:12;99651.97;;;0.63;100.00
47815;BME280;33579;50.058;18.130;2023-04-06T00:22:14;99648.56;;;0.61;100.00
47815;BME280;33579;50.058;18.130;2023-04-06T00:23:16;99647.63;;;0.64;100.00
47815;BME280;33579;50.058;18.130;2023-04-06T00:24:17;99645.09;;;0.62;100.00
47815;BME280;33579;50.058;18.130;2023-04-06T00:25:19;99642.56;;;0.61;100.00
47815;BME280;33579;50.058;18.130;2023-04-06T00:26:21;99642.50;;;0.62;100.00
47815;BME280;33579;50.058;18.130;2023-04-06T00:27:24;99640.19;;;0.54;100.00
47815;BME280;33579;50.058;18.130;2023-04-06T00:28:25;99634.31;;;0.51;100.00
47815;BME280;33579;50.058;18.130;2023-04-06T00:29:27;99644.72;;;0.49;100.00
47815;BME280;33579;50.058;18.130;2023-04-06T00:30:28;99634.66;;;0.41;100.00
47815;BME280;33579;50.058;18.130;2023-04-06T00:31:31;99642.44;;;0.41;100.00
47815;BME280;33579;50.058;18.130;2023-04-06T00:32:34;99634.66;;;0.41;100.00
47815;BME280;33579;50.058;18.130;2023-04-06T00:33:36;99633.88;;;0.39;100.00
47815;BME280;33579;50.058;18.130;2023-04-06T00:34:37;99638.38;;;0.34;100.00
47815;BME280;33579;50.058;18.130;2023-04-06T00:35:39;99642.63;;;0.35;100.00
47815;BME280;33579;50.058;18.130;2023-04-06T00:36:41;99637.63;;;0.31;100.00
47815;BME280;33579;50.058;18.130;2023-04-06T00:37:42;99637.63;;;0.31;100.00
47815;BME280;33579;50.058;18.130;2023-04-06T00:38:44;99632.28;;;0.35;100.00
47815;BME280;33579;50.058;18.130;2023-04-06T00:39:46;99637.38;;;0.38;100.00
47815;BME280;33579;50.058;18.130;2023-04-06T00:40:48;99633.09;;;0.37;100.00
47815;BME280;33579;50.058;18.130;2023-04-06T00:41:51;99628.78;;;0.36;100.00
47815;BME280;33579;50.058;18.130;2023-04-06T00:42:53;99629.59;;;0.38;100.00
47815;BME280;33579;50.058;18.130;2023-04-06T00:43:56;99627.84;;;0.39;100.00
47815;BME280;33579;50.058;18.130;2023-04-06T00:44:59;99629.41;;;0.43;100.00
47815;BME280;33579;50.058;18.130;2023-04-06T00:46:01;99635.41;;;0.45;100.00
47815;BME280;33579;50.058;18.130;2023-04-06T00:47:03;99633.75;;;0.43;100.00
47815;BME280;33579;50.058;18.130;2023-04-06T00:48:05;99635.47;;;0.42;100.00
47815;BME280;33579;50.058;18.130;2023-04-06T00:49:07;99632.06;;;0.41;100.00
47815;BME280;33579;50.058;18.130;2023-04-06T00:50:09;99632.97;;;0.40;100.00
47815;BME280;33579;50.058;18.130;2023-04-06T00:51:11;99632.41;;;0.32;100.00
47815;BME280;33579;50.058;18.130;2023-04-06T00:52:12;99635.00;;;0.32;100.00
47815;BME280;33579;50.058;18.130;2023-04-06T00:53:15;99630.97;;;0.25;100.00
47815;BME280;33579;50.058;18.130;2023-04-06T00:54:16;99626.91;;;0.18;100.00
47815;BME280;33579;50.058;18.130;2023-04-06T00:55:18;99633.00;;;0.17;100.00
47815;BME280;33579;50.058;18.130;2023-04-06T00:56:20;99633.78;;;0.19;100.00
47815;BME280;33579;50.058;18.130;2023-04-06T00:57:25;99636.16;;;0.25;100.00
47815;BME280;33579;50.058;18.130;2023-04-06T00:58:29;99634.38;;;0.25;100.00
47815;BME280;33579;50.058;18.130;2023-04-06T00:59:38;99627.69;;;0.20;100.00
47815;BME280;33579;50.058;18.130;2023-04-06T01:00:43;99633.72;;;0.20;100.00
47815;BME280;33579;50.058;18.130;2023-04-06T01:01:50;99627.03;;;0.15;100.00
47815;BME280;33579;50.058;18.130;2023-04-06T01:03:04;99627.75;;;0.18;100.00
47815;BME280;33579;50.058;18.130;2023-04-06T01:04:12;99631.03;;;0.23;100.00
47815;BME280;33579;50.058;18.130;2023-04-06T01:05:16;99634.56;;;0.21;100.00
47815;BME280;33579;50.058;18.130;2023-04-06T01:06:25;99628.44;;;0.23;100.00
47815;BME280;33579;50.058;18.130;2023-04-06T01:07:32;99627.47;;;0.26;100.00
47815;BME280;33579;50.058;18.130;2023-04-06T01:08:42;99627.41;;;0.27;100.00
47815;BME280;33579;50.058;18.130;2023-04-06T01:09:54;99629.16;;;0.27;100.00
47815;BME280;33579;50.058;18.130;2023-04-06T01:11:00;99629.22;;;0.25;100.00
47815;BME280;33579;50.058;18.130;2023-04-06T01:12:03;99635.28;;;0.24;100.00
47815;BME280;33579;50.058;18.130;2023-04-06T01:13:07;99638.66;;;0.26;100.00
47815;BME280;33579;50.058;18.130;2023-04-06T01:14:37;99632.56;;;0.27;100.00
47815;BME280;33579;50.058;18.130;2023-04-06T01:15:41;99633.31;;;0.31;100.00
47815;BME280;33579;50.058;18.130;2023-04-06T01:16:48;99640.31;;;0.29;100.00
47815;BME280;33579;50.058;18.130;2023-04-06T01:17:52;99638.78;;;0.23;100.00
47815;BME280;33579;50.058;18.130;2023-04-06T01:18:54;99642.16;;;0.25;100.00
47815;BME280;33579;50.058;18.130;2023-04-06T01:20:01;99641.38;;;0.23;100.00
47815;BME280;33579;50.058;18.130;2023-04-06T01:21:05;99636.41;;;0.17;100.00
47815;BME280;33579;50.058;18.130;2023-04-06T01:22:07;99640.31;;;0.05;100.00
47815;BME280;33579;50.058;18.130;2023-04-06T01:23:17;99638.03;;;-0.04;100.00
47815;BME280;33579;50.058;18.130;2023-04-06T01:24:21;99636.00;;;-0.20;100.00
47815;BME280;33579;50.058;18.130;2023-04-06T01:25:44;99632.94;;;-0.31;100.00
47815;BME280;33579;50.058;18.130;2023-04-06T01:26:46;99637.38;;;-0.35;100.00
47815;BME280;33579;50.058;18.130;2023-04-06T01:27:48;99634.16;;;-0.41;100.00
47815;BME280;33579;50.058;18.130;2023-04-06T01:29:10;99631.75;;;-0.46;100.00
47815;BME280;33579;50.058;18.130;2023-04-06T01:30:12;99635.09;;;-0.44;100.00
47815;BME280;33579;50.058;18.130;2023-04-06T01:31:32;99628.78;;;-0.35;100.00
47815;BME280;33579;50.058;18.130;2023-04-06T01:32:34;99630.38;;;-0.31;100.00
47815;BME280;33579;50.058;18.130;2023-04-06T01:33:36;99631.03;;;-0.26;100.00
47815;BME280;33579;50.058;18.130;2023-04-06T01:34:41;99632.41;;;-0.16;100.00
47815;BME280;33579;50.058;18.130;2023-04-06T01:35:43;99632.13;;;-0.08;100.00
47815;BME280;33579;50.058;18.130;2023-04-06T01:36:53;99632.88;;;-0.04;100.00
47815;BME280;33579;50.058;18.130;2023-04-06T01:38:04;99628.44;;;-0.01;100.00
47815;BME280;33579;50.058;18.130;2023-04-06T01:39:09;99622.19;;;0.05;100.00
47815;BME280;33579;50.058;18.130;2023-04-06T01:40:13;99631.47;;;0.11;100.00
47815;BME280;33579;50.058;18.130;2023-04-06T01:41:22;99634.88;;;0.11;100.00
47815;BME280;33579;50.058;18.130;2023-04-06T01:42:26;99621.41;;;0.03;100.00
47815;BME280;33579;50.058;18.130;2023-04-06T01:43:28;99628.19;;;0.06;100.00
47815;BME280;33579;50.058;18.130;2023-04-06T01:44:37;99623.00;;;0.06;100.00
47815;BME280;33579;50.058;18.130;2023-04-06T01:45:44;99627.19;;;0.10;100.00
47815;BME280;33579;50.058;18.130;2023-04-06T01:46:53;99622.06;;;0.08;100.00
47815;BME280;33579;50.058;18.130;2023-04-06T01:47:55;99628.88;;;0.11;100.00
47815;BME280;33579;50.058;18.130;2023-04-06T01:48:59;99623.88;;;0.06;100.00
47815;BME280;33579;50.058;18.130;2023-04-06T01:50:09;99623.88;;;0.06;100.00
47815;BME280;33579;50.058;18.130;2023-04-06T01:51:16;99625.50;;;0.09;100.00
47815;BME280;33579;50.058;18.130;2023-04-06T01:52:28;99625.59;;;0.06;100.00
47815;BME280;33579;50.058;18.130;2023-04-06T01:53:30;99635.13;;;0.05;100.00
47815;BME280;33579;50.058;18.130;2023-04-06T01:54:37;99623.91;;;0.05;100.00
47815;BME280;33579;50.058;18.130;2023-04-06T01:55:59;99629.94;;;0.05;100.00
47815;BME280;33579;50.058;18.130;2023-04-06T01:57:07;99624.78;;;0.05;100.00
47815;BME280;33579;50.058;18.130;2023-04-06T01:58:18;99632.75;;;-0.01;100.00
47815;BME280;33579;50.058;18.130;2023-04-06T01:59:20;99633.03;;;-0.09;100.00
47815;BME280;33579;50.058;18.130;2023-04-06T02:00:22;99633.81;;;-0.07;100.00
47815;BME280;33579;50.058;18.130;2023-04-06T02:01:27;99642.31;;;-0.03;100.00
47815;BME280;33579;50.058;18.130;2023-04-06T02:02:31;99635.44;;;-0.04;100.00
47815;BME280;33579;50.058;18.130;2023-04-06T02:03:40;99635.44;;;-0.04;100.00
47815;BME280;33579;50.058;18.130;2023-04-06T02:04:44;99631.97;;;-0.03;100.00
47815;BME280;33579;50.058;18.130;2023-04-06T02:05:47;99634.72;;;-0.08;100.00
47815;BME280;33579;50.058;18.130;2023-04-06T02:07:04;99636.06;;;-0.21;100.00
47815;BME280;33579;50.058;18.130;2023-04-06T02:08:06;99627.00;;;-0.33;100.00
47815;BME280;33579;50.058;18.130;2023-04-06T02:09:11;99631.75;;;-0.46;100.00
47815;BME280;33579;50.058;18.130;2023-04-06T02:10:14;99629.25;;;-0.49;100.00
47815;BME280;33579;50.058;18.130;2023-04-06T02:11:17;99638.97;;;-0.56;100.00
47815;BME280;33579;50.058;18.130;2023-04-06T02:12:23;99628.53;;;-0.53;100.00
47815;BME280;33579;50.058;18.130;2023-04-06T02:13:25;99629.22;;;-0.48;100.00
47815;BME280;33579;50.058;18.130;2023-04-06T02:14:27;99630.94;;;-0.48;100.00
47815;BME280;33579;50.058;18.130;2023-04-06T02:15:32;99631.53;;;-0.40;100.00
47815;BME280;33579;50.058;18.130;2023-04-06T02:16:34;99632.09;;;-0.32;100.00
47815;BME280;33579;50.058;18.130;2023-04-06T02:17:35;99624.28;;;-0.30;100.00
47815;BME280;33579;50.058;18.130;2023-04-06T02:18:37;99636.28;;;-0.27;100.00
47815;BME280;33579;50.058;18.130;2023-04-06T02:19:39;99631.84;;;-0.24;100.00
47815;BME280;33579;50.058;18.130;2023-04-06T02:20:40;99628.63;;;-0.31;100.00
47815;BME280;33579;50.058;18.130;2023-04-06T02:21:42;99625.16;;;-0.30;100.00
47815;BME280;33579;50.058;18.130;2023-04-06T02:22:44;99624.25;;;-0.29;100.00
47815;BME280;33579;50.058;18.130;2023-04-06T02:23:46;99629.31;;;-0.25;100.00
47815;BME280;33579;50.058;18.130;2023-04-06T02:24:48;99630.84;;;-0.20;100.00
47815;BME280;33579;50.058;18.130;2023-04-06T02:25:50;99631.50;;;-0.15;100.00
47815;BME280;33579;50.058;18.130;2023-04-06T02:26:51;99626.50;;;-0.19;100.00
47815;BME280;33579;50.058;18.130;2023-04-06T02:27:53;99625.03;;;-0.26;100.00
47815;BME280;33579;50.058;18.130;2023-04-06T02:28:55;99628.44;;;-0.26;100.00
47815;BME280;33579;50.058;18.130;2023-04-06T02:29:57;99629.31;;;-0.25;100.00
47815;BME280;33579;50.058;18.130;2023-04-06T02:30:58;99625.78;;;-0.23;100.00
47815;BME280;33579;50.058;18.130;2023-04-06T02:32:01;99634.63;;;-0.30;100.00
47815;BME280;33579;50.058;18.130;2023-04-06T02:33:06;99626.88;;;-0.30;100.00
47815;BME280;33579;50.058;18.130;2023-04-06T02:34:17;99627.75;;;-0.30;100.00
47815;BME280;33579;50.058;18.130;2023-04-06T02:35:22;99628.41;;;-0.24;100.00
47815;BME280;33579;50.058;18.130;2023-04-06T02:36:28;99625.03;;;-0.26;100.00
47815;BME280;33579;50.058;18.130;2023-04-06T02:37:29;99629.25;;;-0.24;100.00
47815;BME280;33579;50.058;18.130;2023-04-06T02:38:33;99632.84;;;-0.28;100.00
47815;BME280;33579;50.058;18.130;2023-04-06T02:39:36;99630.25;;;-0.28;100.00
47815;BME280;33579;50.058;18.130;2023-04-06T02:40:41;99635.38;;;-0.26;100.00
47815;BME280;33579;50.058;18.130;2023-04-06T02:41:55;99626.69;;;-0.24;100.00
47815;BME280;33579;50.058;18.130;2023-04-06T02:42:58;99632.69;;;-0.23;100.00
47815;BME280;33579;50.058;18.130;2023-04-06T02:44:06;99631.00;;;-0.24;100.00
47815;BME280;33579;50.058;18.130;2023-04-06T02:45:13;99629.97;;;-0.20;100.00
47815;BME280;33579;50.058;18.130;2023-04-06T02:46:18;99638.59;;;-0.20;100.00
47815;BME280;33579;50.058;18.130;2023-04-06T02:47:21;99631.91;;;-0.25;100.00
47815;BME280;33579;50.058;18.130;2023-04-06T02:48:24;99631.28;;;-0.32;100.00
47815;BME280;33579;50.058;18.130;2023-04-06T02:49:27;99631.75;;;-0.46;100.00
47815;BME280;33579;50.058;18.130;2023-04-06T02:50:30;99636.13;;;-0.48;100.00
47815;BME280;33579;50.058;18.130;2023-04-06T02:51:36;99631.88;;;-0.51;100.00
47815;BME280;33579;50.058;18.130;2023-04-06T02:52:52;99633.69;;;-0.53;100.00
47815;BME280;33579;50.058;18.130;2023-04-06T02:53:54;99632.94;;;-0.57;100.00
47815;BME280;33579;50.058;18.130;2023-04-06T02:54:56;99635.47;;;-0.55;100.00
47815;BME280;33579;50.058;18.130;2023-04-06T02:56:01;99641.44;;;-0.53;100.00
47815;BME280;33579;50.058;18.130;2023-04-06T02:57:17;99632.59;;;-0.46;100.00
47815;BME280;33579;50.058;18.130;2023-04-06T02:58:19;99635.22;;;-0.47;100.00
47815;BME280;33579;50.058;18.130;2023-04-06T02:59:26;99633.28;;;-0.66;100.00
47815;BME280;33579;50.058;18.130;2023-04-06T03:00:38;99632.16;;;-0.84;100.00
47815;BME280;33579;50.058;18.130;2023-04-06T03:01:39;99633.38;;;-0.96;100.00
47815;BME280;33579;50.058;18.130;2023-04-06T03:02:41;99632.19;;;-1.13;100.00
47815;BME280;33579;50.058;18.130;2023-04-06T03:03:46;99640.31;;;-1.25;100.00
47815;BME280;33579;50.058;18.130;2023-04-06T03:04:56;99627.56;;;-1.30;100.00
47815;BME280;33579;50.058;18.130;2023-04-06T03:06:03;99631.97;;;-1.33;100.00
47815;BME280;33579;50.058;18.130;2023-04-06T03:07:05;99632.75;;;-1.31;100.00
47815;BME280;33579;50.058;18.130;2023-04-06T03:08:11;99631.97;;;-1.33;100.00
47815;BME280;33579;50.058;18.130;2023-04-06T03:09:16;99629.56;;;-1.39;100.00
47815;BME280;33579;50.058;18.130;2023-04-06T03:10:18;99620.88;;;-1.37;100.00
47815;BME280;33579;50.058;18.130;2023-04-06T03:11:21;99628.31;;;-1.26;100.00
47815;BME280;33579;50.058;18.130;2023-04-06T03:12:25;99629.59;;;-1.13;100.00
47815;BME280;33579;50.058;18.130;2023-04-06T03:13:46;99625.88;;;-1.04;100.00
47815;BME280;33579;50.058;18.130;2023-04-06T03:14:48;99626.66;;;-1.02;100.00
47815;BME280;33579;50.058;18.130;2023-04-06T03:15:50;99617.72;;;-0.91;100.00
47815;BME280;33579;50.058;18.130;2023-04-06T03:16:54;99626.09;;;-0.83;100.00
47815;BME280;33579;50.058;18.130;2023-04-06T03:17:58;99630.25;;;-0.79;100.00
47815;BME280;33579;50.058;18.130;2023-04-06T03:19:11;99634.31;;;-0.72;100.00
47815;BME280;33579;50.058;18.130;2023-04-06T03:20:13;99625.44;;;-0.64;100.00
47815;BME280;33579;50.058;18.130;2023-04-06T03:21:15;99630.63;;;-0.64;100.00
47815;BME280;33579;50.058;18.130;2023-04-06T03:22:28;99629.03;;;-0.68;100.00
47815;BME280;33579;50.058;18.130;2023-04-06T03:23:30;99633.19;;;-0.64;100.00
47815;BME280;33579;50.058;18.130;2023-04-06T03:24:34;99629.69;;;-0.62;100.00
47815;BME280;33579;50.058;18.130;2023-04-06T03:25:36;99632.22;;;-0.60;100.00
47815;BME280;33579;50.058;18.130;2023-04-06T03:26:40;99641.75;;;-0.62;100.00
47815;BME280;33579;50.058;18.130;2023-04-06T03:27:42;99638.53;;;-0.69;100.00
47815;BME280;33579;50.058;18.130;2023-04-06T03:28:47;99633.34;;;-0.69;100.00
47815;BME280;33579;50.058;18.130;2023-04-06T03:29:50;99629.09;;;-0.70;100.00
47815;BME280;33579;50.058;18.130;2023-04-06T03:30:58;99643.81;;;-0.72;100.00
47815;BME280;33579;50.058;18.130;2023-04-06T03:32:15;99638.13;;;-0.83;100.00
47815;BME280;33579;50.058;18.130;2023-04-06T03:33:16;99635.03;;;-0.93;100.00
47815;BME280;33579;50.058;18.130;2023-04-06T03:34:26;99639.78;;;-1.08;100.00
47815;BME280;33579;50.058;18.130;2023-04-06T03:35:28;99628.09;;;-1.20;100.00
47815;BME280;33579;50.058;18.130;2023-04-06T03:36:31;99633.59;;;-1.31;100.00
47815;BME280;33579;50.058;18.130;2023-04-06T03:37:33;99631.84;;;-1.30;100.00
47815;BME280;33579;50.058;18.130;2023-04-06T03:38:43;99633.41;;;-1.24;100.00
47815;BME280;33579;50.058;18.130;2023-04-06T03:39:47;99634.88;;;-1.16;100.00
47815;BME280;33579;50.058;18.130;2023-04-06T03:40:54;99634.63;;;-1.08;100.00
47815;BME280;33579;50.058;18.130;2023-04-06T03:41:59;99633.59;;;-1.02;100.00
47815;BME280;33579;50.058;18.130;2023-04-06T03:43:09;99634.47;;;-1.03;100.00
47815;BME280;33579;50.058;18.130;2023-04-06T03:44:12;99629.31;;;-1.03;100.00
47815;BME280;33579;50.058;18.130;2023-04-06T03:45:13;99630.94;;;-1.01;100.00
47815;BME280;33579;50.058;18.130;2023-04-06T03:46:21;99632.84;;;-1.06;100.00
47815;BME280;33579;50.058;18.130;2023-04-06T03:47:26;99631.16;;;-1.07;100.00
47815;BME280;33579;50.058;18.130;2023-04-06T03:48:31;99638.75;;;-1.02;100.00
47815;BME280;33579;50.058;18.130;2023-04-06T03:49:37;99635.31;;;-1.03;100.00
47815;BME280;33579;50.058;18.130;2023-04-06T03:50:42;99633.59;;;-1.02;100.00
47815;BME280;33579;50.058;18.130;2023-04-06T03:51:44;99631.84;;;-1.02;100.00
47815;BME280;33579;50.058;18.130;2023-04-06T03:52:45;99640.47;;;-1.03;100.00
47815;BME280;33579;50.058;18.130;2023-04-06T03:53:47;99640.44;;;-1.01;100.00
47815;BME280;33579;50.058;18.130;2023-04-06T03:54:49;99642.09;;;-0.98;100.00
47815;BME280;33579;50.058;18.130;2023-04-06T03:55:50;99641.22;;;-0.99;100.00
47815;BME280;33579;50.058;18.130;2023-04-06T03:56:52;99636.91;;;-0.98;100.00
47815;BME280;33579;50.058;18.130;2023-04-06T03:57:54;99646.41;;;-0.99;100.00
47815;BME280;33579;50.058;18.130;2023-04-06T03:58:56;99652.34;;;-0.97;100.00
47815;BME280;33579;50.058;18.130;2023-04-06T03:59:57;99649.00;;;-1.01;100.00
47815;BME280;33579;50.058;18.130;2023-04-06T04:01:00;99652.41;;;-0.98;100.00
47815;BME280;33579;50.058;18.130;2023-04-06T04:02:01;99653.28;;;-1.00;100.00
47815;BME280;33579;50.058;18.130;2023-04-06T04:03:03;99649.88;;;-1.00;100.00
47815;BME280;33579;50.058;18.130;2023-04-06T04:04:05;99663.63;;;-1.00;100.00
47815;BME280;33579;50.058;18.130;2023-04-06T04:05:07;99659.28;;;-0.97;100.00
47815;BME280;33579;50.058;18.130;2023-04-06T04:06:11;99654.91;;;-0.95;100.00
47815;BME280;33579;50.058;18.130;2023-04-06T04:07:15;99654.09;;;-0.97;100.00
47815;BME280;33579;50.058;18.130;2023-04-06T04:08:16;99654.81;;;-0.94;100.00
47815;BME280;33579;50.058;18.130;2023-04-06T04:09:18;99655.81;;;-0.98;100.00
47815;BME280;33579;50.058;18.130;2023-04-06T04:10:20;99651.41;;;-0.94;100.00
47815;BME280;33579;50.058;18.130;2023-04-06T04:11:21;99654.25;;;-1.02;100.00
47815;BME280;33579;50.058;18.130;2023-04-06T04:12:29;99647.47;;;-1.06;100.00
47815;BME280;33579;50.058;18.130;2023-04-06T04:13:32;99648.03;;;-1.23;100.00
47815;BME280;33579;50.058;18.130;2023-04-06T04:14:37;99655.44;;;-1.41;100.00
47815;BME280;33579;50.058;18.130;2023-04-06T04:15:39;99659.13;;;-1.50;100.00
47815;BME280;33579;50.058;18.130;2023-04-06T04:16:40;99662.53;;;-1.49;100.00
47815;BME280;33579;50.058;18.130;2023-04-06T04:17:42;99656.59;;;-1.51;100.00
47815;BME280;33579;50.058;18.130;2023-04-06T04:18:45;99655.00;;;-1.56;100.00
47815;BME280;33579;50.058;18.130;2023-04-06T04:19:47;99653.97;;;-1.50;100.00
47815;BME280;33579;50.058;18.130;2023-04-06T04:20:49;99654.88;;;-1.51;100.00
47815;BME280;33579;50.058;18.130;2023-04-06T04:21:54;99652.84;;;-1.41;100.00
47815;BME280;33579;50.058;18.130;2023-04-06T04:23:04;99659.47;;;-1.32;100.00
47815;BME280;33579;50.058;18.130;2023-04-06T04:24:07;99650.69;;;-1.27;100.00
47815;BME280;33579;50.058;18.130;2023-04-06T04:25:10;99652.22;;;-1.21;100.00
47815;BME280;33579;50.058;18.130;2023-04-06T04:26:18;99652.00;;;-1.13;100.00
47815;BME280;33579;50.058;18.130;2023-04-06T04:27:20;99650.16;;;-1.09;100.00
47815;BME280;33579;50.058;18.130;2023-04-06T04:28:23;99656.97;;;-1.07;100.00
47815;BME280;33579;50.058;18.130;2023-04-06T04:29:26;99657.91;;;-1.09;100.00
47815;BME280;33579;50.058;18.130;2023-04-06T04:30:30;99657.00;;;-1.08;100.00
47815;BME280;33579;50.058;18.130;2023-04-06T04:31:31;99657.00;;;-1.08;100.00
47815;BME280;33579;50.058;18.130;2023-04-06T04:32:37;99653.66;;;-1.12;100.00
47815;BME280;33579;50.058;18.130;2023-04-06T04:33:41;99655.72;;;-1.22;100.00
47815;BME280;33579;50.058;18.130;2023-04-06T04:34:48;99649.72;;;-1.22;100.00
47815;BME280;33579;50.058;18.130;2023-04-06T04:36:04;99654.78;;;-1.19;100.00
47815;BME280;33579;50.058;18.130;2023-04-06T04:37:12;99652.84;;;-1.13;100.00
47815;BME280;33579;50.058;18.130;2023-04-06T04:38:27;99653.75;;;-1.14;100.00
47815;BME280;33579;50.058;18.130;2023-04-06T04:39:30;99665.78;;;-1.14;100.00
47815;BME280;33579;50.058;18.130;2023-04-06T04:40:37;99662.13;;;-1.07;100.00
47815;BME280;33579;50.058;18.130;2023-04-06T04:41:43;99656.91;;;-1.05;100.00
47815;BME280;33579;50.058;18.130;2023-04-06T04:42:46;99652.59;;;-1.05;100.00
47815;BME280;33579;50.058;18.130;2023-04-06T04:43:54;99659.56;;;-1.07;100.00
47815;BME280;33579;50.058;18.130;2023-04-06T04:44:58;99653.38;;;-1.03;100.00
47815;BME280;33579;50.058;18.130;2023-04-06T04:46:20;99657.75;;;-1.05;100.00
47815;BME280;33579;50.058;18.130;2023-04-06T04:47:22;99657.66;;;-1.02;100.00
47815;BME280;33579;50.058;18.130;2023-04-06T04:48:24;99666.16;;;-0.98;100.00
47815;BME280;33579;50.058;18.130;2023-04-06T04:49:30;99662.56;;;-0.94;100.00
47815;BME280;33579;50.058;18.130;2023-04-06T04:50:32;99662.56;;;-0.94;100.00
47815;BME280;33579;50.058;18.130;2023-04-06T04:51:34;99660.06;;;-0.95;100.00
47815;BME280;33579;50.058;18.130;2023-04-06T04:52:41;99664.19;;;-0.90;100.00
47815;BME280;33579;50.058;18.130;2023-04-06T04:53:48;99671.84;;;-0.87;100.00
47815;BME280;33579;50.058;18.130;2023-04-06T04:54:55;99665.81;;;-0.87;100.00
47815;BME280;33579;50.058;18.130;2023-04-06T04:56:01;99664.75;;;-0.81;100.00
47815;BME280;33579;50.058;18.130;2023-04-06T04:57:02;99667.94;;;-0.73;100.00
47815;BME280;33579;50.058;18.130;2023-04-06T04:58:13;99667.00;;;-0.71;100.00
47815;BME280;33579;50.058;18.130;2023-04-06T04:59:23;99662.91;;;-0.76;100.00
47815;BME280;33579;50.058;18.130;2023-04-06T05:00:34;99665.50;;;-0.78;100.00
47815;BME280;33579;50.058;18.130;2023-04-06T05:01:35;99667.06;;;-0.72;100.00
47815;BME280;33579;50.058;18.130;2023-04-06T05:02:55;99665.38;;;-0.73;100.00
47815;BME280;33579;50.058;18.130;2023-04-06T05:04:00;99663.88;;;-0.80;100.00
47815;BME280;33579;50.058;18.130;2023-04-06T05:05:02;99667.53;;;-0.86;100.00
47815;BME280;33579;50.058;18.130;2023-04-06T05:06:04;99660.63;;;-0.87;100.00
47815;BME280;33579;50.058;18.130;2023-04-06T05:07:10;99662.19;;;-0.81;100.00
47815;BME280;33579;50.058;18.130;2023-04-06T05:08:14;99668.88;;;-0.76;100.00
47815;BME280;33579;50.058;18.130;2023-04-06T05:09:19;99668.59;;;-0.66;100.00
47815;BME280;33579;50.058;18.130;2023-04-06T05:10:21;99660.69;;;-0.62;100.00
47815;BME280;33579;50.058;18.130;2023-04-06T05:11:30;99657.81;;;-0.52;100.00
47815;BME280;33579;50.058;18.130;2023-04-06T05:12:34;99667.88;;;-0.45;100.00
47815;BME280;33579;50.058;18.130;2023-04-06T05:13:42;99662.41;;;-0.35;100.00
47815;BME280;33579;50.058;18.130;2023-04-06T05:14:51;99660.28;;;-0.24;100.00
47815;BME280;33579;50.058;18.130;2023-04-06T05:15:56;99670.28;;;-0.15;100.00
47815;BME280;33579;50.058;18.130;2023-04-06T05:17:02;99669.25;;;-0.09;100.00
47815;BME280;33579;50.058;18.130;2023-04-06T05:18:04;99660.53;;;-0.06;100.00
47815;BME280;33579;50.058;18.130;2023-04-06T05:19:09;99663.91;;;-0.04;100.00
47815;BME280;33579;50.058;18.130;2023-04-06T05:20:16;99658.56;;;0.01;100.00
47815;BME280;33579;50.058;18.130;2023-04-06T05:21:22;99666.00;;;0.10;100.00
47815;BME280;33579;50.058;18.130;2023-04-06T05:22:31;99664.88;;;0.17;100.00
47815;BME280;33579;50.058;18.130;2023-04-06T05:23:40;99659.31;;;0.28;100.00
47815;BME280;33579;50.058;18.130;2023-04-06T05:24:42;99654.81;;;0.33;100.00
47815;BME280;33579;50.058;18.130;2023-04-06T05:25:44;99653.72;;;0.39;100.00
47815;BME280;33579;50.058;18.130;2023-04-06T05:26:51;99655.25;;;0.45;100.00
47815;BME280;33579;50.058;18.130;2023-04-06T05:27:57;99661.78;;;0.55;100.00
47815;BME280;33579;50.058;18.130;2023-04-06T05:29:08;99665.63;;;0.67;100.00
47815;BME280;33579;50.058;18.130;2023-04-06T05:30:12;99663.63;;;0.74;100.00
47815;BME280;33579;50.058;18.130;2023-04-06T05:31:18;99667.63;;;0.82;100.00
47815;BME280;33579;50.058;18.130;2023-04-06T05:32:23;99663.88;;;0.90;100.00
47815;BME280;33579;50.058;18.130;2023-04-06T05:33:25;99663.78;;;0.93;99.67
47815;BME280;33579;50.058;18.130;2023-04-06T05:34:49;99662.03;;;0.93;99.44
47815;BME280;33579;50.058;18.130;2023-04-06T05:35:50;99660.34;;;0.92;99.24